sensor_id;sensor_type;location;lat;lon;timestamp;pressure;altitude;pressure_sealevel;temperature;humidity
60258;BME280;46115;44.484;11.314;2023-10-19T00:03:43;99736.91;;;12.98;91.07
60258;BME280;46115;44.484;11.314;2023-10-19T00:07:46;99711.78;;;12.66;91.44
60258;BME280;46115;44.484;11.314;2023-10-19T00:11:48;99717.84;;;12.55;91.67
60258;BME280;46115;44.484;11.314;2023-10-19T00:15:52;99717.00;;;13.17;89.50
60258;BME280;46115;44.484;11.314;2023-10-19T00:19:57;99711.16;;;12.88;89.95
60258;BME280;46115;44.484;11.314;2023-10-19T00:24:20;99721.47;;;13.16;90.79
60258;BME280;46115;44.484;11.314;2023-10-19T00:28:24;99711.28;;;13.35;88.53
60258;BME280;46115;44.484;11.314;2023-10-19T00:32:28;99691.59;;;13.01;89.08
60258;BME280;46115;44.484;11.314;2023-10-19T00:36:33;99701.09;;;13.17;87.97
60258;BME280;46115;44.484;11.314;2023-10-19T00:40:39;99699.41;;;13.28;89.31
60258;BME280;46115;44.484;11.314;2023-10-19T00:44:48;99687.16;;;13.38;87.46
60258;BME280;46115;44.484;11.314;2023-10-19T00:48:54;99675.47;;;12.92;91.75
60258;BME280;46115;44.484;11.314;2023-10-19T00:52:58;99666.38;;;13.32;87.87
60258;BME280;46115;44.484;11.314;2023-10-19T00:57:02;99648.81;;;13.06;89.13
60258;BME280;46115;44.484;11.314;2023-10-19T01:01:09;99650.38;;;12.72;91.59
60258;BME280;46115;44.484;11.314;2023-10-19T01:05:12;99675.78;;;13.00;90.74
60258;BME280;46115;44.484;11.314;2023-10-19T01:09:16;99655.69;;;13.08;89.56
60258;BME280;46115;44.484;11.314;2023-10-19T01:13:21;99662.78;;;12.84;89.68
60258;BME280;46115;44.484;11.314;2023-10-19T01:17:27;99645.47;;;13.15;88.76
60258;BME280;46115;44.484;11.314;2023-10-19T01:21:32;99632.97;;;13.17;87.97
60258;BME280;46115;44.484;11.314;2023-10-19T01:25:47;99621.59;;;13.28;87.66
60258;BME280;46115;44.484;11.314;2023-10-19T01:29:51;99624.94;;;13.19;88.40
60258;BME280;46115;44.484;11.314;2023-10-19T01:34:01;99624.47;;;13.12;87.86
60258;BME280;46115;44.484;11.314;2023-10-19T01:38:06;99615.78;;;13.10;87.67
60258;BME280;46115;44.484;11.314;2023-10-19T01:42:10;99592.41;;;13.28;86.96
60258;BME280;46115;44.484;11.314;2023-10-19T01:46:14;99590.72;;;12.77;88.56
60258;BME280;46115;44.484;11.314;2023-10-19T01:50:22;99597.72;;;12.78;88.88
60258;BME280;46115;44.484;11.314;2023-10-19T01:54:25;99597.09;;;12.88;88.49
60258;BME280;46115;44.484;11.314;2023-10-19T01:58:29;99590.25;;;12.60;90.05
60258;BME280;46115;44.484;11.314;2023-10-19T02:02:31;99574.81;;;12.90;89.75
60258;BME280;46115;44.484;11.314;2023-10-19T02:06:34;99557.09;;;12.54;89.49
60258;BME280;46115;44.484;11.314;2023-10-19T02:10:39;99550.22;;;12.75;89.01
60258;BME280;46115;44.484;11.314;2023-10-19T02:14:44;99558.28;;;12.74;89.50
60258;BME280;46115;44.484;11.314;2023-10-19T02:18:48;99575.94;;;12.99;89.57
60258;BME280;46115;44.484;11.314;2023-10-19T02:22:50;99569.50;;;12.54;90.14
60258;BME280;46115;44.484;11.314;2023-10-19T02:26:54;99534.00;;;11.67;96.30
60258;BME280;46115;44.484;11.314;2023-10-19T02:30:59;99490.91;;;11.00;100.00
60258;BME280;46115;44.484;11.314;2023-10-19T02:35:12;99459.19;;;10.73;100.00
60258;BME280;46115;44.484;11.314;2023-10-19T02:39:15;99539.22;;;11.29;100.00
60258;BME280;46115;44.484;11.314;2023-10-19T02:43:19;99502.75;;;11.72;100.00
60258;BME280;46115;44.484;11.314;2023-10-19T02:47:25;99503.06;;;11.68;100.00
60258;BME280;46115;44.484;11.314;2023-10-19T02:51:30;99502.63;;;12.37;98.80
60258;BME280;46115;44.484;11.314;2023-10-19T02:55:32;99506.22;;;12.49;97.58
60258;BME280;46115;44.484;11.314;2023-10-19T02:59:35;99468.22;;;12.48;96.11
60258;BME280;46115;44.484;11.314;2023-10-19T03:03:39;99479.59;;;11.89;100.00
60258;BME280;46115;44.484;11.314;2023-10-19T03:07:45;99478.28;;;12.80;95.09
60258;BME280;46115;44.484;11.314;2023-10-19T03:11:47;99415.78;;;12.65;93.44
60258;BME280;46115;44.484;11.314;2023-10-19T03:15:54;99489.84;;;12.55;95.30
60258;BME280;46115;44.484;11.314;2023-10-19T03:19:57;99469.81;;;12.99;92.55
60258;BME280;46115;44.484;11.314;2023-10-19T03:24:00;99463.91;;;12.95;92.85
60258;BME280;46115;44.484;11.314;2023-10-19T03:28:06;99461.19;;;12.60;93.99
60258;BME280;46115;44.484;11.314;2023-10-19T03:32:09;99449.25;;;12.55;93.56
60258;BME280;46115;44.484;11.314;2023-10-19T03:36:14;99461.63;;;12.30;95.50
60258;BME280;46115;44.484;11.314;2023-10-19T03:40:17;99467.84;;;12.66;94.66
60258;BME280;46115;44.484;11.314;2023-10-19T03:44:28;99439.91;;;12.97;92.78
60258;BME280;46115;44.484;11.314;2023-10-19T03:48:40;99454.91;;;12.37;95.13
60258;BME280;46115;44.484;11.314;2023-10-19T03:52:45;99455.44;;;12.66;94.38
60258;BME280;46115;44.484;11.314;2023-10-19T03:56:48;99467.50;;;11.97;98.80
60258;BME280;46115;44.484;11.314;2023-10-19T04:00:51;99442.47;;;12.74;94.36
60258;BME280;46115;44.484;11.314;2023-10-19T04:04:54;99435.19;;;12.41;95.27
60258;BME280;46115;44.484;11.314;2023-10-19T04:08:59;99429.16;;;12.87;92.59
60258;BME280;46115;44.484;11.314;2023-10-19T04:13:02;99428.09;;;12.66;93.43
60258;BME280;46115;44.484;11.314;2023-10-19T04:17:05;99445.09;;;12.27;96.78
60258;BME280;46115;44.484;11.314;2023-10-19T04:21:07;99420.63;;;12.23;95.19
60258;BME280;46115;44.484;11.314;2023-10-19T04:25:12;99406.78;;;12.78;93.93
60258;BME280;46115;44.484;11.314;2023-10-19T04:29:14;99384.75;;;12.06;96.16
60258;BME280;46115;44.484;11.314;2023-10-19T04:33:20;99380.81;;;12.60;94.56
60258;BME280;46115;44.484;11.314;2023-10-19T04:37:24;99398.00;;;12.78;93.79
60258;BME280;46115;44.484;11.314;2023-10-19T04:41:28;99402.66;;;12.15;97.15
60258;BME280;46115;44.484;11.314;2023-10-19T04:45:30;99403.19;;;12.79;94.49
60258;BME280;46115;44.484;11.314;2023-10-19T04:49:33;99390.00;;;12.67;93.88
60258;BME280;46115;44.484;11.314;2023-10-19T04:53:36;99397.63;;;12.71;92.89
60258;BME280;46115;44.484;11.314;2023-10-19T04:57:40;99377.91;;;12.52;95.63
60258;BME280;46115;44.484;11.314;2023-10-19T05:01:42;99372.94;;;13.17;91.17
60258;BME280;46115;44.484;11.314;2023-10-19T05:05:45;99355.69;;;12.76;93.31
60258;BME280;46115;44.484;11.314;2023-10-19T05:09:48;99370.72;;;12.65;94.11
60258;BME280;46115;44.484;11.314;2023-10-19T05:13:52;99369.88;;;13.10;91.96
60258;BME280;46115;44.484;11.314;2023-10-19T05:17:54;99361.06;;;13.10;90.83
60258;BME280;46115;44.484;11.314;2023-10-19T05:21:57;99374.22;;;13.00;91.72
60258;BME280;46115;44.484;11.314;2023-10-19T05:26:01;99366.22;;;12.89;91.73
60258;BME280;46115;44.484;11.314;2023-10-19T05:30:07;99367.34;;;13.09;90.73
60258;BME280;46115;44.484;11.314;2023-10-19T05:34:11;99346.84;;;13.00;91.32
60258;BME280;46115;44.484;11.314;2023-10-19T05:38:13;99351.91;;;13.14;90.73
60258;BME280;46115;44.484;11.314;2023-10-19T05:42:16;99369.13;;;12.86;94.08
60258;BME280;46115;44.484;11.314;2023-10-19T05:46:20;99379.06;;;12.47;95.21
60258;BME280;46115;44.484;11.314;2023-10-19T05:50:23;99358.00;;;12.81;93.07
60258;BME280;46115;44.484;11.314;2023-10-19T05:54:26;99345.53;;;13.17;91.78
60258;BME280;46115;44.484;11.314;2023-10-19T05:58:28;99342.53;;;12.75;92.10
60258;BME280;46115;44.484;11.314;2023-10-19T06:02:32;99350.19;;;12.91;94.12
60258;BME280;46115;44.484;11.314;2023-10-19T06:06:36;99351.00;;;12.80;93.27
60258;BME280;46115;44.484;11.314;2023-10-19T06:10:38;99328.50;;;13.08;91.74
60258;BME280;46115;44.484;11.314;2023-10-19T06:14:41;99348.78;;;12.39;95.18
60258;BME280;46115;44.484;11.314;2023-10-19T06:18:45;99373.00;;;12.58;95.77
60258;BME280;46115;44.484;11.314;2023-10-19T06:22:47;99355.53;;;13.02;92.67
60258;BME280;46115;44.484;11.314;2023-10-19T06:26:51;99364.53;;;12.88;93.49
60258;BME280;46115;44.484;11.314;2023-10-19T06:30:53;99367.34;;;12.98;92.77
60258;BME280;46115;44.484;11.314;2023-10-19T06:34:57;99358.50;;;13.32;91.41
60258;BME280;46115;44.484;11.314;2023-10-19T06:39:00;99372.28;;;12.67;95.95
60258;BME280;46115;44.484;11.314;2023-10-19T06:43:07;99353.97;;;13.10;92.46
60258;BME280;46115;44.484;11.314;2023-10-19T06:47:10;99361.75;;;13.25;91.95
60258;BME280;46115;44.484;11.314;2023-10-19T06:51:14;99347.63;;;13.24;92.66
60258;BME280;46115;44.484;11.314;2023-10-19T06:55:18;99345.28;;;13.08;93.65
60258;BME280;46115;44.484;11.314;2023-10-19T06:59:21;99339.56;;;13.26;92.75
60258;BME280;46115;44.484;11.314;2023-10-19T07:03:25;99338.03;;;13.10;92.90
60258;BME280;46115;44.484;11.314;2023-10-19T07:07:30;99363.34;;;13.03;94.97
60258;BME280;46115;44.484;11.314;2023-10-19T07:11:33;99344.78;;;12.92;94.67
60258;BME280;46115;44.484;11.314;2023-10-19T07:15:35;99350.69;;;13.07;94.45
60258;BME280;46115;44.484;11.314;2023-10-19T07:19:42;99339.31;;;12.47;96.88
60258;BME280;46115;44.484;11.314;2023-10-19T07:23:46;99323.13;;;12.74;95.90
60258;BME280;46115;44.484;11.314;2023-10-19T07:27:50;99342.28;;;13.13;93.62
60258;BME280;46115;44.484;11.314;2023-10-19T07:31:53;99338.34;;;13.30;92.29
60258;BME280;46115;44.484;11.314;2023-10-19T07:35:56;99341.88;;;12.95;93.44
60258;BME280;46115;44.484;11.314;2023-10-19T07:40:02;99316.38;;;13.50;91.74
60258;BME280;46115;44.484;11.314;2023-10-19T07:44:06;99316.03;;;13.55;91.62
60258;BME280;46115;44.484;11.314;2023-10-19T07:48:08;99323.03;;;13.22;95.39
60258;BME280;46115;44.484;11.314;2023-10-19T07:52:12;99318.22;;;12.46;97.94
60258;BME280;46115;44.484;11.314;2023-10-19T07:56:17;99335.38;;;13.10;95.44
60258;BME280;46115;44.484;11.314;2023-10-19T08:00:20;99317.13;;;12.72;97.11
60258;BME280;46115;44.484;11.314;2023-10-19T08:04:24;99315.66;;;13.48;94.87
60258;BME280;46115;44.484;11.314;2023-10-19T08:08:29;99310.00;;;13.64;93.36
60258;BME280;46115;44.484;11.314;2023-10-19T08:12:37;99313.63;;;13.29;94.56
60258;BME280;46115;44.484;11.314;2023-10-19T08:16:40;99293.19;;;13.74;92.32
60258;BME280;46115;44.484;11.314;2023-10-19T08:20:42;99284.91;;;13.34;95.46
60258;BME280;46115;44.484;11.314;2023-10-19T08:24:46;99274.78;;;13.39;95.04
60258;BME280;46115;44.484;11.314;2023-10-19T08:28:52;99295.88;;;13.52;94.67
60258;BME280;46115;44.484;11.314;2023-10-19T08:32:54;99288.81;;;13.85;93.73
60258;BME280;46115;44.484;11.314;2023-10-19T08:36:59;99283.63;;;13.94;93.45
60258;BME280;46115;44.484;11.314;2023-10-19T08:41:01;99277.59;;;13.81;95.02
60258;BME280;46115;44.484;11.314;2023-10-19T08:45:07;99300.03;;;13.99;91.95
60258;BME280;46115;44.484;11.314;2023-10-19T08:49:10;99297.19;;;13.69;94.78
60258;BME280;46115;44.484;11.314;2023-10-19T08:53:13;99280.91;;;14.05;93.71
60258;BME280;46115;44.484;11.314;2023-10-19T08:57:17;99279.09;;;14.06;92.52
60258;BME280;46115;44.484;11.314;2023-10-19T09:01:22;99276.53;;;14.16;93.14
60258;BME280;46115;44.484;11.314;2023-10-19T09:05:25;99264.91;;;13.96;91.27
60258;BME280;46115;44.484;11.314;2023-10-19T09:09:29;99283.06;;;14.12;93.29
60258;BME280;46115;44.484;11.314;2023-10-19T09:13:43;99287.06;;;13.63;94.83
60258;BME280;46115;44.484;11.314;2023-10-19T09:17:47;99239.94;;;13.76;92.84
60258;BME280;46115;44.484;11.314;2023-10-19T09:21:50;99282.53;;;13.86;94.09
60258;BME280;46115;44.484;11.314;2023-10-19T09:25:53;99281.81;;;13.95;92.97
60258;BME280;46115;44.484;11.314;2023-10-19T09:29:55;99278.38;;;14.04;92.68
60258;BME280;46115;44.484;11.314;2023-10-19T09:34:00;99284.22;;;14.30;90.81
60258;BME280;46115;44.484;11.314;2023-10-19T09:38:06;99253.69;;;14.24;90.42
60258;BME280;46115;44.484;11.314;2023-10-19T09:42:10;99259.16;;;13.68;95.09
60258;BME280;46115;44.484;11.314;2023-10-19T09:46:21;99240.44;;;13.70;92.56
60258;BME280;46115;44.484;11.314;2023-10-19T09:50:26;99240.69;;;14.10;90.42
60258;BME280;46115;44.484;11.314;2023-10-19T09:54:41;99237.75;;;13.92;90.68
60258;BME280;46115;44.484;11.314;2023-10-19T09:58:52;99252.00;;;13.26;97.63
60258;BME280;46115;44.484;11.314;2023-10-19T10:02:55;99231.72;;;13.79;94.83
60258;BME280;46115;44.484;11.314;2023-10-19T10:06:59;99218.28;;;14.24;92.62
60258;BME280;46115;44.484;11.314;2023-10-19T10:11:14;99205.59;;;14.27;91.67
60258;BME280;46115;44.484;11.314;2023-10-19T10:15:38;99199.53;;;14.04;93.89
60258;BME280;46115;44.484;11.314;2023-10-19T10:19:40;99185.34;;;13.83;93.47
60258;BME280;46115;44.484;11.314;2023-10-19T10:23:45;99174.38;;;13.88;94.28
60258;BME280;46115;44.484;11.314;2023-10-19T10:27:50;99196.25;;;14.33;93.37
60258;BME280;46115;44.484;11.314;2023-10-19T10:31:54;99177.06;;;14.29;92.72
60258;BME280;46115;44.484;11.314;2023-10-19T10:35:56;99171.56;;;14.63;91.29
60258;BME280;46115;44.484;11.314;2023-10-19T10:40:01;99191.41;;;14.59;90.48
60258;BME280;46115;44.484;11.314;2023-10-19T10:44:05;99178.75;;;14.51;91.30
60258;BME280;46115;44.484;11.314;2023-10-19T10:48:12;99186.41;;;14.24;93.24
60258;BME280;46115;44.484;11.314;2023-10-19T10:52:23;99174.81;;;14.46;91.23
60258;BME280;46115;44.484;11.314;2023-10-19T10:56:28;99157.41;;;14.62;89.86
60258;BME280;46115;44.484;11.314;2023-10-19T11:00:30;99168.75;;;14.64;88.97
60258;BME280;46115;44.484;11.314;2023-10-19T11:04:43;99151.81;;;14.65;88.86
60258;BME280;46115;44.484;11.314;2023-10-19T11:08:46;99147.75;;;14.61;89.45
60258;BME280;46115;44.484;11.314;2023-10-19T11:12:51;99145.19;;;14.90;89.25
60258;BME280;46115;44.484;11.314;2023-10-19T11:16:55;99141.53;;;14.51;91.43
60258;BME280;46115;44.484;11.314;2023-10-19T11:21:13;99147.69;;;14.10;93.39
60258;BME280;46115;44.484;11.314;2023-10-19T11:25:20;99129.13;;;14.61;91.79
60258;BME280;46115;44.484;11.314;2023-10-19T11:29:25;99124.41;;;14.44;92.30
60258;BME280;46115;44.484;11.314;2023-10-19T11:33:27;99136.91;;;14.84;91.13
60258;BME280;46115;44.484;11.314;2023-10-19T11:37:45;99114.03;;;14.62;91.14
60258;BME280;46115;44.484;11.314;2023-10-19T11:41:48;99101.78;;;14.50;91.17
60258;BME280;46115;44.484;11.314;2023-10-19T11:45:52;99115.31;;;14.68;89.91
60258;BME280;46115;44.484;11.314;2023-10-19T11:49:54;99124.47;;;13.70;94.69
60258;BME280;46115;44.484;11.314;2023-10-19T11:53:57;99137.72;;;14.23;93.87
60258;BME280;46115;44.484;11.314;2023-10-19T11:57:59;99120.78;;;14.45;92.24
60258;BME280;46115;44.484;11.314;2023-10-19T12:02:04;99108.59;;;14.43;91.95
60258;BME280;46115;44.484;11.314;2023-10-19T12:06:08;99103.59;;;14.49;91.56
60258;BME280;46115;44.484;11.314;2023-10-19T12:10:11;99124.34;;;14.34;92.19
60258;BME280;46115;44.484;11.314;2023-10-19T12:14:14;99098.06;;;14.62;91.57
60258;BME280;46115;44.484;11.314;2023-10-19T12:18:19;99118.91;;;14.15;93.98
60258;BME280;46115;44.484;11.314;2023-10-19T12:22:22;99127.44;;;14.19;94.17
60258;BME280;46115;44.484;11.314;2023-10-19T12:26:26;99126.41;;;14.31;92.93
60258;BME280;46115;44.484;11.314;2023-10-19T12:30:31;99117.28;;;14.45;93.63
60258;BME280;46115;44.484;11.314;2023-10-19T12:34:40;99101.91;;;14.79;91.78
60258;BME280;46115;44.484;11.314;2023-10-19T12:38:42;99074.41;;;14.38;92.21
60258;BME280;46115;44.484;11.314;2023-10-19T12:42:45;99056.38;;;14.72;91.82
60258;BME280;46115;44.484;11.314;2023-10-19T12:46:48;99024.25;;;14.54;91.60
60258;BME280;46115;44.484;11.314;2023-10-19T12:50:52;99075.81;;;14.63;92.38
60258;BME280;46115;44.484;11.314;2023-10-19T12:54:54;99077.63;;;14.62;91.32
60258;BME280;46115;44.484;11.314;2023-10-19T12:59:00;99077.25;;;14.77;91.79
60258;BME280;46115;44.484;11.314;2023-10-19T13:03:04;99059.63;;;14.85;91.75
60258;BME280;46115;44.484;11.314;2023-10-19T13:07:09;99076.00;;;14.81;91.57
60258;BME280;46115;44.484;11.314;2023-10-19T13:11:13;99075.19;;;14.90;90.70
60258;BME280;46115;44.484;11.314;2023-10-19T13:15:16;99066.81;;;14.24;94.36
60258;BME280;46115;44.484;11.314;2023-10-19T13:19:19;99063.53;;;13.90;94.00
60258;BME280;46115;44.484;11.314;2023-10-19T13:23:26;99043.38;;;14.88;90.36
60258;BME280;46115;44.484;11.314;2023-10-19T13:27:29;99032.84;;;14.37;92.92
60258;BME280;46115;44.484;11.314;2023-10-19T13:31:33;99031.16;;;14.26;95.18
60258;BME280;46115;44.484;11.314;2023-10-19T13:35:36;99007.81;;;14.70;92.36
60258;BME280;46115;44.484;11.314;2023-10-19T13:39:40;99008.41;;;14.43;92.58
60258;BME280;46115;44.484;11.314;2023-10-19T13:43:43;99030.91;;;14.39;92.62
60258;BME280;46115;44.484;11.314;2023-10-19T13:47:45;99028.84;;;14.43;93.46
60258;BME280;46115;44.484;11.314;2023-10-19T13:51:48;99008.94;;;14.07;95.90
60258;BME280;46115;44.484;11.314;2023-10-19T13:55:52;99025.03;;;14.76;92.62
60258;BME280;46115;44.484;11.314;2023-10-19T13:59:55;99039.13;;;14.05;97.17
60258;BME280;46115;44.484;11.314;2023-10-19T14:03:57;99050.25;;;14.81;94.16
60258;BME280;46115;44.484;11.314;2023-10-19T14:08:00;99039.16;;;14.66;94.94
60258;BME280;46115;44.484;11.314;2023-10-19T14:12:06;99046.25;;;14.56;95.35
60258;BME280;46115;44.484;11.314;2023-10-19T14:16:10;99053.97;;;14.59;93.77
60258;BME280;46115;44.484;11.314;2023-10-19T14:20:13;99008.50;;;14.72;94.50
60258;BME280;46115;44.484;11.314;2023-10-19T14:24:16;99016.25;;;14.94;92.51
60258;BME280;46115;44.484;11.314;2023-10-19T14:28:20;99011.16;;;14.62;93.82
60258;BME280;46115;44.484;11.314;2023-10-19T14:32:22;99035.88;;;14.53;95.33
60258;BME280;46115;44.484;11.314;2023-10-19T14:36:27;99011.94;;;15.03;92.03
60258;BME280;46115;44.484;11.314;2023-10-19T14:40:30;99008.38;;;14.74;94.97
60258;BME280;46115;44.484;11.314;2023-10-19T14:44:35;98991.75;;;15.01;93.04
60258;BME280;46115;44.484;11.314;2023-10-19T14:48:37;98972.13;;;14.82;92.59
60258;BME280;46115;44.484;11.314;2023-10-19T14:52:40;98962.06;;;14.95;92.60
60258;BME280;46115;44.484;11.314;2023-10-19T14:56:43;98942.75;;;14.93;91.67
60258;BME280;46115;44.484;11.314;2023-10-19T15:00:47;98945.25;;;14.85;92.68
60258;BME280;46115;44.484;11.314;2023-10-19T15:04:55;98937.13;;;14.68;92.44
60258;BME280;46115;44.484;11.314;2023-10-19T15:08:58;98912.13;;;14.40;92.54
60258;BME280;46115;44.484;11.314;2023-10-19T15:13:02;98948.59;;;14.58;92.52
60258;BME280;46115;44.484;11.314;2023-10-19T15:17:08;98937.84;;;14.98;91.72
60258;BME280;46115;44.484;11.314;2023-10-19T15:21:11;98931.38;;;14.62;94.04
60258;BME280;46115;44.484;11.314;2023-10-19T15:25:15;98936.69;;;14.82;93.14
60258;BME280;46115;44.484;11.314;2023-10-19T15:29:21;98952.47;;;14.14;94.68
60258;BME280;46115;44.484;11.314;2023-10-19T15:33:24;98949.19;;;14.41;94.72
60258;BME280;46115;44.484;11.314;2023-10-19T15:37:28;98938.19;;;14.55;94.42
60258;BME280;46115;44.484;11.314;2023-10-19T15:41:30;98942.75;;;14.34;95.35
60258;BME280;46115;44.484;11.314;2023-10-19T15:45:33;98925.81;;;14.25;95.69
60258;BME280;46115;44.484;11.314;2023-10-19T15:49:46;98909.81;;;13.76;98.79
60258;BME280;46115;44.484;11.314;2023-10-19T15:53:49;98899.16;;;14.06;97.21
60258;BME280;46115;44.484;11.314;2023-10-19T15:57:52;98908.66;;;13.99;98.55
60258;BME280;46115;44.484;11.314;2023-10-19T16:01:55;98894.16;;;14.13;98.74
60258;BME280;46115;44.484;11.314;2023-10-19T16:06:00;98916.66;;;14.18;98.02
60258;BME280;46115;44.484;11.314;2023-10-19T16:10:03;98924.56;;;14.29;96.12
60258;BME280;46115;44.484;11.314;2023-10-19T16:14:05;98936.38;;;14.56;95.03
60258;BME280;46115;44.484;11.314;2023-10-19T16:18:08;98930.06;;;14.47;95.71
60258;BME280;46115;44.484;11.314;2023-10-19T16:22:12;98898.72;;;14.51;96.01
60258;BME280;46115;44.484;11.314;2023-10-19T16:26:14;98920.81;;;14.01;97.01
60258;BME280;46115;44.484;11.314;2023-10-19T16:30:17;98936.38;;;14.06;99.27
60258;BME280;46115;44.484;11.314;2023-10-19T16:34:20;98954.91;;;14.67;96.00
60258;BME280;46115;44.484;11.314;2023-10-19T16:38:24;98963.66;;;14.18;98.80
60258;BME280;46115;44.484;11.314;2023-10-19T16:42:27;98951.44;;;13.96;98.63
60258;BME280;46115;44.484;11.314;2023-10-19T16:46:29;98929.81;;;13.80;100.00
60258;BME280;46115;44.484;11.314;2023-10-19T16:50:33;98918.84;;;13.94;100.00
60258;BME280;46115;44.484;11.314;2023-10-19T22:06:09;98636.97;;;12.99;100.00
60258;BME280;46115;44.484;11.314;2023-10-19T22:10:14;98629.03;;;13.08;100.00
60258;BME280;46115;44.484;11.314;2023-10-19T22:14:20;98609.88;;;13.45;100.00
60258;BME280;46115;44.484;11.314;2023-10-19T22:18:22;98609.91;;;13.55;100.00
60258;BME280;46115;44.484;11.314;2023-10-19T22:22:26;98601.91;;;13.84;100.00
60258;BME280;46115;44.484;11.314;2023-10-19T22:26:29;98598.00;;;13.97;100.00
60258;BME280;46115;44.484;11.314;2023-10-19T22:30:32;98575.06;;;13.96;100.00
60258;BME280;46115;44.484;11.314;2023-10-19T22:34:35;98581.50;;;14.03;100.00
60258;BME280;46115;44.484;11.314;2023-10-19T22:38:39;98584.50;;;14.38;100.00
60258;BME280;46115;44.484;11.314;2023-10-19T22:42:41;98573.50;;;14.13;100.00
60258;BME280;46115;44.484;11.314;2023-10-19T22:46:44;98584.34;;;13.54;100.00
60258;BME280;46115;44.484;11.314;2023-10-19T22:50:46;98582.22;;;13.96;100.00
60258;BME280;46115;44.484;11.314;2023-10-19T22:54:50;98586.69;;;13.76;100.00
60258;BME280;46115;44.484;11.314;2023-10-19T22:58:53;98582.91;;;13.79;100.00
60258;BME280;46115;44.484;11.314;2023-10-19T23:02:55;98584.19;;;13.55;100.00
60258;BME280;46115;44.484;11.314;2023-10-19T23:06:58;98570.97;;;14.12;100.00
60258;BME280;46115;44.484;11.314;2023-10-19T23:11:03;98572.84;;;13.92;100.00
60258;BME280;46115;44.484;11.314;2023-10-19T23:15:09;98574.03;;;14.26;100.00
60258;BME280;46115;44.484;11.314;2023-10-19T23:19:17;98564.06;;;13.91;100.00
60258;BME280;46115;44.484;11.314;2023-10-19T23:23:23;98560.47;;;14.29;100.00
60258;BME280;46115;44.484;11.314;2023-10-19T23:27:26;98542.56;;;13.56;100.00
60258;BME280;46115;44.484;11.314;2023-10-19T23:31:32;98520.75;;;13.62;100.00
60258;BME280;46115;44.484;11.314;2023-10-19T23:35:39;98517.84;;;14.12;100.00
60258;BME280;46115;44.484;11.314;2023-10-19T23:39:41;98515.59;;;13.60;100.00
60258;BME280;46115;44.484;11.314;2023-10-19T23:43:47;98504.56;;;13.36;100.00
60258;BME280;46115;44.484;11.314;2023-10-19T23:47:50;98497.25;;;12.99;100.00
60258;BME280;46115;44.484;11.314;2023-10-19T23:51:52;98495.34;;;13.30;100.00
60258;BME280;46115;44.484;11.314;2023-10-19T23:55:55;98484.97;;;13.08;100.00
60258;BME280;46115;44.484;11.314;2023-10-19T23:59:59;98457.06;;;13.04;100.00
